sensor_id;sensor_type;location;lat;lon;timestamp;temperature;humidity
16955;DHT22;8594;52.052;8.354;2023-07-09T00:00:14;27.90;82.30
16955;DHT22;8594;52.052;8.354;2023-07-09T00:02:43;28.00;82.60
16955;DHT22;8594;52.052;8.354;2023-07-09T00:05:12;27.80;85.40
16955;DHT22;8594;52.052;8.354;2023-07-09T00:07:42;27.60;86.90
16955;DHT22;8594;52.052;8.354;2023-07-09T00:10:16;27.60;87.20
16955;DHT22;8594;52.052;8.354;2023-07-09T00:12:44;27.50;87.40
16955;DHT22;8594;52.052;8.354;2023-07-09T00:15:12;27.30;88.70
16955;DHT22;8594;52.052;8.354;2023-07-09T00:17:41;27.10;89.30
16955;DHT22;8594;52.052;8.354;2023-07-09T00:20:12;27.20;89.20
16955;DHT22;8594;52.052;8.354;2023-07-09T00:22:42;27.10;90.10
16955;DHT22;8594;52.052;8.354;2023-07-09T00:25:19;26.90;90.20
16955;DHT22;8594;52.052;8.354;2023-07-09T00:27:46;26.90;90.50
16955;DHT22;8594;52.052;8.354;2023-07-09T00:30:17;26.80;90.70
16955;DHT22;8594;52.052;8.354;2023-07-09T00:32:45;26.80;91.00
16955;DHT22;8594;52.052;8.354;2023-07-09T00:35:12;26.60;91.20
16955;DHT22;8594;52.052;8.354;2023-07-09T00:37:41;26.30;91.80
16955;DHT22;8594;52.052;8.354;2023-07-09T00:40:14;26.50;91.50
16955;DHT22;8594;52.052;8.354;2023-07-09T00:42:46;26.70;90.70
16955;DHT22;8594;52.052;8.354;2023-07-09T00:45:19;27.00;90.20
16955;DHT22;8594;52.052;8.354;2023-07-09T00:47:53;27.20;90.00
16955;DHT22;8594;52.052;8.354;2023-07-09T00:50:31;27.30;89.70
16955;DHT22;8594;52.052;8.354;2023-07-09T00:53:03;27.30;89.50
16955;DHT22;8594;52.052;8.354;2023-07-09T00:55:38;27.20;89.30
16955;DHT22;8594;52.052;8.354;2023-07-09T00:58:13;27.20;89.40
16955;DHT22;8594;52.052;8.354;2023-07-09T01:00:44;27.20;89.50
16955;DHT22;8594;52.052;8.354;2023-07-09T01:03:27;26.80;90.50
16955;DHT22;8594;52.052;8.354;2023-07-09T01:05:59;26.50;91.70
16955;DHT22;8594;52.052;8.354;2023-07-09T01:08:26;26.30;91.80
16955;DHT22;8594;52.052;8.354;2023-07-09T01:10:56;26.10;92.20
16955;DHT22;8594;52.052;8.354;2023-07-09T01:13:26;26.00;92.20
16955;DHT22;8594;52.052;8.354;2023-07-09T01:15:54;26.00;92.80
16955;DHT22;8594;52.052;8.354;2023-07-09T01:18:22;25.70;92.80
16955;DHT22;8594;52.052;8.354;2023-07-09T01:20:50;25.90;92.30
16955;DHT22;8594;52.052;8.354;2023-07-09T01:23:19;25.80;93.00
16955;DHT22;8594;52.052;8.354;2023-07-09T01:25:48;25.80;93.20
16955;DHT22;8594;52.052;8.354;2023-07-09T01:28:18;25.90;92.30
16955;DHT22;8594;52.052;8.354;2023-07-09T01:30:46;26.00;92.50
16955;DHT22;8594;52.052;8.354;2023-07-09T01:33:19;25.90;92.60
16955;DHT22;8594;52.052;8.354;2023-07-09T01:35:46;25.80;92.60
16955;DHT22;8594;52.052;8.354;2023-07-09T01:38:13;25.70;93.10
16955;DHT22;8594;52.052;8.354;2023-07-09T01:40:43;25.60;92.90
16955;DHT22;8594;52.052;8.354;2023-07-09T01:43:12;25.60;92.90
16955;DHT22;8594;52.052;8.354;2023-07-09T01:45:39;25.70;92.50
16955;DHT22;8594;52.052;8.354;2023-07-09T01:48:06;25.80;92.00
16955;DHT22;8594;52.052;8.354;2023-07-09T01:50:40;26.00;91.70
16955;DHT22;8594;52.052;8.354;2023-07-09T01:53:08;25.90;92.10
16955;DHT22;8594;52.052;8.354;2023-07-09T01:55:37;26.00;92.30
16955;DHT22;8594;52.052;8.354;2023-07-09T01:58:05;26.00;92.30
16955;DHT22;8594;52.052;8.354;2023-07-09T02:00:32;25.80;92.70
16955;DHT22;8594;52.052;8.354;2023-07-09T02:03:00;25.70;92.90
16955;DHT22;8594;52.052;8.354;2023-07-09T02:05:30;25.60;93.20
16955;DHT22;8594;52.052;8.354;2023-07-09T02:07:58;25.60;93.10
16955;DHT22;8594;52.052;8.354;2023-07-09T02:10:26;25.70;92.60
16955;DHT22;8594;52.052;8.354;2023-07-09T02:12:53;25.70;92.50
16955;DHT22;8594;52.052;8.354;2023-07-09T02:15:21;25.70;92.50
16955;DHT22;8594;52.052;8.354;2023-07-09T02:17:48;25.70;92.30
16955;DHT22;8594;52.052;8.354;2023-07-09T02:20:18;25.80;92.70
16955;DHT22;8594;52.052;8.354;2023-07-09T02:22:45;25.70;92.90
16955;DHT22;8594;52.052;8.354;2023-07-09T02:25:12;25.60;92.90
16955;DHT22;8594;52.052;8.354;2023-07-09T02:27:39;25.70;92.80
16955;DHT22;8594;52.052;8.354;2023-07-09T02:30:06;25.70;93.10
16955;DHT22;8594;52.052;8.354;2023-07-09T02:32:37;25.50;93.30
16955;DHT22;8594;52.052;8.354;2023-07-09T02:35:04;25.50;93.40
16955;DHT22;8594;52.052;8.354;2023-07-09T02:37:31;25.50;93.30
16955;DHT22;8594;52.052;8.354;2023-07-09T02:39:58;25.40;93.70
16955;DHT22;8594;52.052;8.354;2023-07-09T02:42:25;25.40;93.80
16955;DHT22;8594;52.052;8.354;2023-07-09T02:44:52;25.40;93.50
16955;DHT22;8594;52.052;8.354;2023-07-09T02:47:19;25.40;93.90
16955;DHT22;8594;52.052;8.354;2023-07-09T02:49:47;25.40;94.30
16955;DHT22;8594;52.052;8.354;2023-07-09T02:52:14;25.30;94.60
16955;DHT22;8594;52.052;8.354;2023-07-09T02:54:41;25.20;94.90
16955;DHT22;8594;52.052;8.354;2023-07-09T02:57:11;25.00;94.80
16955;DHT22;8594;52.052;8.354;2023-07-09T02:59:37;24.90;95.20
16955;DHT22;8594;52.052;8.354;2023-07-09T03:02:04;24.80;95.40
16955;DHT22;8594;52.052;8.354;2023-07-09T03:04:31;24.80;95.40
16955;DHT22;8594;52.052;8.354;2023-07-09T03:07:00;24.80;95.60
16955;DHT22;8594;52.052;8.354;2023-07-09T03:09:26;24.80;96.10
16955;DHT22;8594;52.052;8.354;2023-07-09T03:11:54;24.80;96.20
16955;DHT22;8594;52.052;8.354;2023-07-09T03:14:22;24.80;95.90
16955;DHT22;8594;52.052;8.354;2023-07-09T03:16:49;24.90;95.50
16955;DHT22;8594;52.052;8.354;2023-07-09T03:19:16;24.80;96.20
16955;DHT22;8594;52.052;8.354;2023-07-09T03:21:43;24.90;96.40
16955;DHT22;8594;52.052;8.354;2023-07-09T03:24:11;24.90;96.00
16955;DHT22;8594;52.052;8.354;2023-07-09T03:26:44;24.80;95.80
16955;DHT22;8594;52.052;8.354;2023-07-09T03:29:11;24.80;95.90
16955;DHT22;8594;52.052;8.354;2023-07-09T03:31:37;24.80;96.00
16955;DHT22;8594;52.052;8.354;2023-07-09T03:34:04;24.70;96.50
16955;DHT22;8594;52.052;8.354;2023-07-09T03:36:31;24.80;96.60
16955;DHT22;8594;52.052;8.354;2023-07-09T03:38:58;24.80;96.90
16955;DHT22;8594;52.052;8.354;2023-07-09T03:41:26;24.90;96.80
16955;DHT22;8594;52.052;8.354;2023-07-09T03:43:53;24.90;96.80
16955;DHT22;8594;52.052;8.354;2023-07-09T03:46:20;25.00;96.10
16955;DHT22;8594;52.052;8.354;2023-07-09T03:48:47;24.90;95.70
16955;DHT22;8594;52.052;8.354;2023-07-09T03:51:15;25.00;95.70
16955;DHT22;8594;52.052;8.354;2023-07-09T03:53:43;24.80;96.00
16955;DHT22;8594;52.052;8.354;2023-07-09T03:56:09;24.80;96.70
16955;DHT22;8594;52.052;8.354;2023-07-09T03:58:38;24.80;97.20
16955;DHT22;8594;52.052;8.354;2023-07-09T04:01:04;24.90;97.40
16955;DHT22;8594;52.052;8.354;2023-07-09T04:03:31;25.00;97.50
16955;DHT22;8594;52.052;8.354;2023-07-09T04:05:58;25.10;97.60
16955;DHT22;8594;52.052;8.354;2023-07-09T04:08:25;25.00;97.00
16955;DHT22;8594;52.052;8.354;2023-07-09T04:10:53;25.00;97.20
16955;DHT22;8594;52.052;8.354;2023-07-09T04:13:20;25.30;96.90
16955;DHT22;8594;52.052;8.354;2023-07-09T04:15:48;25.30;96.70
16955;DHT22;8594;52.052;8.354;2023-07-09T04:18:15;25.10;97.00
16955;DHT22;8594;52.052;8.354;2023-07-09T04:20:42;25.10;96.70
16955;DHT22;8594;52.052;8.354;2023-07-09T04:23:09;25.30;96.50
16955;DHT22;8594;52.052;8.354;2023-07-09T04:25:37;25.50;96.30
16955;DHT22;8594;52.052;8.354;2023-07-09T04:28:04;25.80;95.80
16955;DHT22;8594;52.052;8.354;2023-07-09T04:30:31;26.10;95.30
16955;DHT22;8594;52.052;8.354;2023-07-09T04:32:59;26.20;95.30
16955;DHT22;8594;52.052;8.354;2023-07-09T04:35:27;26.10;95.80
16955;DHT22;8594;52.052;8.354;2023-07-09T04:37:53;26.20;96.10
16955;DHT22;8594;52.052;8.354;2023-07-09T04:40:20;26.10;96.90
16955;DHT22;8594;52.052;8.354;2023-07-09T04:42:47;26.20;96.60
16955;DHT22;8594;52.052;8.354;2023-07-09T04:45:13;26.30;97.30
16955;DHT22;8594;52.052;8.354;2023-07-09T04:47:40;26.40;97.30
16955;DHT22;8594;52.052;8.354;2023-07-09T04:50:09;26.60;97.90
16955;DHT22;8594;52.052;8.354;2023-07-09T04:52:37;26.80;96.80
16955;DHT22;8594;52.052;8.354;2023-07-09T04:55:05;27.00;95.50
16955;DHT22;8594;52.052;8.354;2023-07-09T04:57:34;27.20;95.40
16955;DHT22;8594;52.052;8.354;2023-07-09T05:00:01;27.40;95.90
16955;DHT22;8594;52.052;8.354;2023-07-09T05:02:30;27.60;96.60
16955;DHT22;8594;52.052;8.354;2023-07-09T05:04:57;27.60;96.70
16955;DHT22;8594;52.052;8.354;2023-07-09T05:07:25;27.60;97.00
16955;DHT22;8594;52.052;8.354;2023-07-09T05:09:51;27.70;97.70
16955;DHT22;8594;52.052;8.354;2023-07-09T05:12:19;27.70;97.00
16955;DHT22;8594;52.052;8.354;2023-07-09T05:14:46;27.90;96.40
16955;DHT22;8594;52.052;8.354;2023-07-09T05:17:13;28.10;95.70
16955;DHT22;8594;52.052;8.354;2023-07-09T05:19:40;27.90;95.50
16955;DHT22;8594;52.052;8.354;2023-07-09T05:22:07;28.20;93.90
16955;DHT22;8594;52.052;8.354;2023-07-09T05:24:35;28.40;94.70
16955;DHT22;8594;52.052;8.354;2023-07-09T05:27:02;28.60;94.00
16955;DHT22;8594;52.052;8.354;2023-07-09T05:29:29;28.60;93.60
16955;DHT22;8594;52.052;8.354;2023-07-09T05:31:55;28.80;92.90
16955;DHT22;8594;52.052;8.354;2023-07-09T05:34:22;28.80;93.20
16955;DHT22;8594;52.052;8.354;2023-07-09T05:36:49;29.10;92.80
16955;DHT22;8594;52.052;8.354;2023-07-09T05:39:15;29.30;93.30
16955;DHT22;8594;52.052;8.354;2023-07-09T05:41:44;29.20;92.30
16955;DHT22;8594;52.052;8.354;2023-07-09T05:44:10;29.20;92.20
16955;DHT22;8594;52.052;8.354;2023-07-09T05:46:37;29.20;92.50
16955;DHT22;8594;52.052;8.354;2023-07-09T05:49:05;29.20;92.40
16955;DHT22;8594;52.052;8.354;2023-07-09T05:51:32;29.10;92.40
16955;DHT22;8594;52.052;8.354;2023-07-09T05:53:59;29.30;91.90
16955;DHT22;8594;52.052;8.354;2023-07-09T05:56:26;29.40;92.00
16955;DHT22;8594;52.052;8.354;2023-07-09T05:58:55;29.50;92.20
16955;DHT22;8594;52.052;8.354;2023-07-09T06:01:23;29.60;91.90
16955;DHT22;8594;52.052;8.354;2023-07-09T06:03:50;29.90;91.90
16955;DHT22;8594;52.052;8.354;2023-07-09T06:06:17;29.70;91.50
16955;DHT22;8594;52.052;8.354;2023-07-09T06:08:44;29.90;91.90
16955;DHT22;8594;52.052;8.354;2023-07-09T06:11:12;29.90;91.50
16955;DHT22;8594;52.052;8.354;2023-07-09T06:13:39;29.80;91.50
16955;DHT22;8594;52.052;8.354;2023-07-09T06:16:07;29.90;91.80
16955;DHT22;8594;52.052;8.354;2023-07-09T06:18:34;30.10;91.50
16955;DHT22;8594;52.052;8.354;2023-07-09T06:21:02;30.20;91.20
16955;DHT22;8594;52.052;8.354;2023-07-09T06:23:30;30.20;90.80
16955;DHT22;8594;52.052;8.354;2023-07-09T06:25:57;30.30;90.90
16955;DHT22;8594;52.052;8.354;2023-07-09T06:28:25;30.20;91.30
16955;DHT22;8594;52.052;8.354;2023-07-09T06:30:54;30.20;91.80
16955;DHT22;8594;52.052;8.354;2023-07-09T06:33:23;30.10;92.00
16955;DHT22;8594;52.052;8.354;2023-07-09T06:35:52;30.10;91.20
16955;DHT22;8594;52.052;8.354;2023-07-09T06:38:21;30.20;91.30
16955;DHT22;8594;52.052;8.354;2023-07-09T06:40:48;30.30;90.80
16955;DHT22;8594;52.052;8.354;2023-07-09T06:43:15;30.60;91.10
16955;DHT22;8594;52.052;8.354;2023-07-09T06:45:50;30.60;91.10
16955;DHT22;8594;52.052;8.354;2023-07-09T06:48:18;30.50;90.40
16955;DHT22;8594;52.052;8.354;2023-07-09T06:50:46;30.60;90.20
16955;DHT22;8594;52.052;8.354;2023-07-09T06:53:14;30.80;90.40
16955;DHT22;8594;52.052;8.354;2023-07-09T06:55:41;31.00;89.70
16955;DHT22;8594;52.052;8.354;2023-07-09T06:58:08;31.10;90.70
16955;DHT22;8594;52.052;8.354;2023-07-09T07:00:35;31.10;90.10
16955;DHT22;8594;52.052;8.354;2023-07-09T07:03:05;31.00;89.70
16955;DHT22;8594;52.052;8.354;2023-07-09T07:05:32;30.80;90.00
16955;DHT22;8594;52.052;8.354;2023-07-09T07:08:01;31.00;89.70
16955;DHT22;8594;52.052;8.354;2023-07-09T07:10:29;31.30;89.20
16955;DHT22;8594;52.052;8.354;2023-07-09T07:12:56;31.30;88.60
16955;DHT22;8594;52.052;8.354;2023-07-09T07:15:23;31.30;90.20
16955;DHT22;8594;52.052;8.354;2023-07-09T07:17:50;31.30;90.70
16955;DHT22;8594;52.052;8.354;2023-07-09T07:20:18;31.20;87.20
16955;DHT22;8594;52.052;8.354;2023-07-09T07:22:45;31.20;88.50
16955;DHT22;8594;52.052;8.354;2023-07-09T07:25:13;31.40;88.40
16955;DHT22;8594;52.052;8.354;2023-07-09T07:27:40;31.50;89.70
16955;DHT22;8594;52.052;8.354;2023-07-09T07:30:08;31.60;88.20
16955;DHT22;8594;52.052;8.354;2023-07-09T07:32:37;31.60;90.00
16955;DHT22;8594;52.052;8.354;2023-07-09T07:35:06;31.80;90.00
16955;DHT22;8594;52.052;8.354;2023-07-09T07:37:33;31.70;89.70
16955;DHT22;8594;52.052;8.354;2023-07-09T07:40:00;31.80;90.60
16955;DHT22;8594;52.052;8.354;2023-07-09T07:42:28;31.60;90.70
16955;DHT22;8594;52.052;8.354;2023-07-09T07:44:55;31.50;90.80
16955;DHT22;8594;52.052;8.354;2023-07-09T07:47:22;31.50;90.90
16955;DHT22;8594;52.052;8.354;2023-07-09T07:49:48;32.00;90.90
16955;DHT22;8594;52.052;8.354;2023-07-09T07:52:15;32.10;90.00
16955;DHT22;8594;52.052;8.354;2023-07-09T07:54:42;32.10;90.40
16955;DHT22;8594;52.052;8.354;2023-07-09T07:57:09;32.00;90.30
16955;DHT22;8594;52.052;8.354;2023-07-09T07:59:37;32.20;88.50
16955;DHT22;8594;52.052;8.354;2023-07-09T08:02:06;32.50;89.80
16955;DHT22;8594;52.052;8.354;2023-07-09T08:04:38;32.60;87.90
16955;DHT22;8594;52.052;8.354;2023-07-09T08:07:06;32.60;88.50
16955;DHT22;8594;52.052;8.354;2023-07-09T08:09:34;32.80;87.20
16955;DHT22;8594;52.052;8.354;2023-07-09T08:12:01;32.70;87.90
16955;DHT22;8594;52.052;8.354;2023-07-09T08:14:34;32.80;88.50
16955;DHT22;8594;52.052;8.354;2023-07-09T08:17:02;32.80;89.20
16955;DHT22;8594;52.052;8.354;2023-07-09T08:19:31;32.70;88.00
16955;DHT22;8594;52.052;8.354;2023-07-09T08:21:58;32.70;90.30
16955;DHT22;8594;52.052;8.354;2023-07-09T08:24:25;32.90;88.40
16955;DHT22;8594;52.052;8.354;2023-07-09T08:26:52;33.10;90.10
16955;DHT22;8594;52.052;8.354;2023-07-09T08:29:20;33.30;88.60
16955;DHT22;8594;52.052;8.354;2023-07-09T08:31:46;33.30;89.10
16955;DHT22;8594;52.052;8.354;2023-07-09T08:34:14;33.00;89.30
16955;DHT22;8594;52.052;8.354;2023-07-09T08:36:41;33.30;88.90
16955;DHT22;8594;52.052;8.354;2023-07-09T08:39:09;33.50;88.90
16955;DHT22;8594;52.052;8.354;2023-07-09T08:41:40;33.40;89.80
16955;DHT22;8594;52.052;8.354;2023-07-09T08:44:33;33.30;89.10
16955;DHT22;8594;52.052;8.354;2023-07-09T08:47:18;33.40;90.20
16955;DHT22;8594;52.052;8.354;2023-07-09T08:49:56;33.50;87.30
16955;DHT22;8594;52.052;8.354;2023-07-09T08:52:28;33.80;85.90
16955;DHT22;8594;52.052;8.354;2023-07-09T08:55:01;33.70;85.30
16955;DHT22;8594;52.052;8.354;2023-07-09T08:57:37;33.60;86.70
16955;DHT22;8594;52.052;8.354;2023-07-09T09:00:14;33.70;86.70
16955;DHT22;8594;52.052;8.354;2023-07-09T09:02:47;34.00;85.20
16955;DHT22;8594;52.052;8.354;2023-07-09T09:05:20;34.20;86.10
16955;DHT22;8594;52.052;8.354;2023-07-09T09:07:53;34.20;87.90
16955;DHT22;8594;52.052;8.354;2023-07-09T09:10:28;34.00;85.90
16955;DHT22;8594;52.052;8.354;2023-07-09T09:13:08;34.10;86.90
16955;DHT22;8594;52.052;8.354;2023-07-09T09:15:39;34.00;87.10
16955;DHT22;8594;52.052;8.354;2023-07-09T09:18:19;33.80;88.90
16955;DHT22;8594;52.052;8.354;2023-07-09T09:20:55;33.90;87.40
16955;DHT22;8594;52.052;8.354;2023-07-09T09:23:35;33.90;88.10
16955;DHT22;8594;52.052;8.354;2023-07-09T09:28:55;33.80;89.60
16955;DHT22;8594;52.052;8.354;2023-07-09T09:31:24;34.00;88.70
16955;DHT22;8594;52.052;8.354;2023-07-09T09:33:53;33.80;90.10
16955;DHT22;8594;52.052;8.354;2023-07-09T09:36:24;33.80;90.40
16955;DHT22;8594;52.052;8.354;2023-07-09T09:38:52;34.00;89.10
16955;DHT22;8594;52.052;8.354;2023-07-09T09:41:20;34.20;89.20
16955;DHT22;8594;52.052;8.354;2023-07-09T09:43:52;34.50;90.00
16955;DHT22;8594;52.052;8.354;2023-07-09T09:46:21;34.40;89.90
16955;DHT22;8594;52.052;8.354;2023-07-09T09:48:50;34.60;89.50
16955;DHT22;8594;52.052;8.354;2023-07-09T09:51:23;34.80;87.40
16955;DHT22;8594;52.052;8.354;2023-07-09T09:53:52;34.90;89.10
16955;DHT22;8594;52.052;8.354;2023-07-09T09:56:27;34.80;86.80
16955;DHT22;8594;52.052;8.354;2023-07-09T09:58:56;35.00;88.20
16955;DHT22;8594;52.052;8.354;2023-07-09T10:01:28;35.00;86.80
16955;DHT22;8594;52.052;8.354;2023-07-09T10:03:58;34.80;89.70
16955;DHT22;8594;52.052;8.354;2023-07-09T10:06:34;34.50;89.80
16955;DHT22;8594;52.052;8.354;2023-07-09T10:09:09;34.50;90.00
16955;DHT22;8594;52.052;8.354;2023-07-09T10:11:47;34.40;90.20
16955;DHT22;8594;52.052;8.354;2023-07-09T10:14:30;34.50;90.70
16955;DHT22;8594;52.052;8.354;2023-07-09T10:17:05;34.70;90.00
16955;DHT22;8594;52.052;8.354;2023-07-09T10:19:47;34.70;88.30
16955;DHT22;8594;52.052;8.354;2023-07-09T10:22:28;35.00;90.30
16955;DHT22;8594;52.052;8.354;2023-07-09T10:25:12;34.90;90.40
16955;DHT22;8594;52.052;8.354;2023-07-09T10:27:59;34.90;89.60
16955;DHT22;8594;52.052;8.354;2023-07-09T10:30:44;35.10;87.30
16955;DHT22;8594;52.052;8.354;2023-07-09T10:33:21;35.30;90.10
16955;DHT22;8594;52.052;8.354;2023-07-09T10:35:59;35.30;89.80
16955;DHT22;8594;52.052;8.354;2023-07-09T10:38:43;35.60;88.10
16955;DHT22;8594;52.052;8.354;2023-07-09T10:41:17;35.70;86.80
16955;DHT22;8594;52.052;8.354;2023-07-09T10:43:49;35.70;86.50
16955;DHT22;8594;52.052;8.354;2023-07-09T10:46:24;35.60;86.60
16955;DHT22;8594;52.052;8.354;2023-07-09T10:48:54;35.40;89.70
16955;DHT22;8594;52.052;8.354;2023-07-09T10:51:26;35.40;89.70
16955;DHT22;8594;52.052;8.354;2023-07-09T10:53:59;35.40;90.30
16955;DHT22;8594;52.052;8.354;2023-07-09T10:56:34;35.50;89.70
16955;DHT22;8594;52.052;8.354;2023-07-09T10:59:06;35.50;90.30
16955;DHT22;8594;52.052;8.354;2023-07-09T11:01:46;35.40;90.10
16955;DHT22;8594;52.052;8.354;2023-07-09T11:04:24;35.30;87.10
16955;DHT22;8594;52.052;8.354;2023-07-09T11:07:00;35.50;88.90
16955;DHT22;8594;52.052;8.354;2023-07-09T11:09:33;35.40;87.80
16955;DHT22;8594;52.052;8.354;2023-07-09T11:12:08;35.80;86.90
16955;DHT22;8594;52.052;8.354;2023-07-09T11:14:42;35.80;86.80
16955;DHT22;8594;52.052;8.354;2023-07-09T11:17:19;35.80;86.60
16955;DHT22;8594;52.052;8.354;2023-07-09T11:19:53;35.80;86.20
16955;DHT22;8594;52.052;8.354;2023-07-09T11:22:22;35.70;85.10
16955;DHT22;8594;52.052;8.354;2023-07-09T11:25:04;36.00;87.20
16955;DHT22;8594;52.052;8.354;2023-07-09T11:27:33;36.20;89.20
16955;DHT22;8594;52.052;8.354;2023-07-09T11:30:20;36.20;85.70
16955;DHT22;8594;52.052;8.354;2023-07-09T11:32:52;36.20;86.70
16955;DHT22;8594;52.052;8.354;2023-07-09T11:35:23;36.30;87.80
16955;DHT22;8594;52.052;8.354;2023-07-09T11:37:52;36.40;85.50
16955;DHT22;8594;52.052;8.354;2023-07-09T11:40:22;36.60;87.40
16955;DHT22;8594;52.052;8.354;2023-07-09T11:42:51;36.30;87.80
16955;DHT22;8594;52.052;8.354;2023-07-09T11:45:23;36.10;83.00
16955;DHT22;8594;52.052;8.354;2023-07-09T11:47:57;35.90;84.10
16955;DHT22;8594;52.052;8.354;2023-07-09T11:50:32;35.80;83.90
16955;DHT22;8594;52.052;8.354;2023-07-09T11:53:04;35.90;83.40
16955;DHT22;8594;52.052;8.354;2023-07-09T11:55:45;35.90;85.30
16955;DHT22;8594;52.052;8.354;2023-07-09T11:58:14;36.40;83.30
16955;DHT22;8594;52.052;8.354;2023-07-09T12:00:46;36.60;80.60
16955;DHT22;8594;52.052;8.354;2023-07-09T12:03:17;36.60;82.90
16955;DHT22;8594;52.052;8.354;2023-07-09T12:05:49;36.50;81.10
16955;DHT22;8594;52.052;8.354;2023-07-09T12:08:18;36.50;82.20
16955;DHT22;8594;52.052;8.354;2023-07-09T12:10:54;36.50;84.30
16955;DHT22;8594;52.052;8.354;2023-07-09T12:13:21;36.50;83.00
16955;DHT22;8594;52.052;8.354;2023-07-09T12:15:48;36.60;80.80
16955;DHT22;8594;52.052;8.354;2023-07-09T12:18:15;36.70;80.70
16955;DHT22;8594;52.052;8.354;2023-07-09T12:20:48;36.80;79.90
16955;DHT22;8594;52.052;8.354;2023-07-09T12:23:22;36.70;79.40
16955;DHT22;8594;52.052;8.354;2023-07-09T12:25:53;36.70;81.50
16955;DHT22;8594;52.052;8.354;2023-07-09T12:28:21;36.40;81.30
16955;DHT22;8594;52.052;8.354;2023-07-09T12:30:50;36.50;81.80
16955;DHT22;8594;52.052;8.354;2023-07-09T12:33:19;36.60;82.70
16955;DHT22;8594;52.052;8.354;2023-07-09T12:35:54;36.50;81.70
16955;DHT22;8594;52.052;8.354;2023-07-09T12:38:25;36.50;81.80
16955;DHT22;8594;52.052;8.354;2023-07-09T12:40:59;36.50;80.10
16955;DHT22;8594;52.052;8.354;2023-07-09T12:43:29;36.70;80.90
16955;DHT22;8594;52.052;8.354;2023-07-09T12:45:58;36.40;82.40
16955;DHT22;8594;52.052;8.354;2023-07-09T12:48:28;36.40;83.30
16955;DHT22;8594;52.052;8.354;2023-07-09T12:50:58;36.50;82.70
16955;DHT22;8594;52.052;8.354;2023-07-09T12:53:27;36.50;83.60
16955;DHT22;8594;52.052;8.354;2023-07-09T12:55:59;36.40;81.50
16955;DHT22;8594;52.052;8.354;2023-07-09T12:58:29;36.50;80.00
16955;DHT22;8594;52.052;8.354;2023-07-09T13:00:59;36.30;81.30
16955;DHT22;8594;52.052;8.354;2023-07-09T13:03:32;36.40;79.80
16955;DHT22;8594;52.052;8.354;2023-07-09T13:06:01;36.30;77.90
16955;DHT22;8594;52.052;8.354;2023-07-09T13:08:32;36.00;78.90
16955;DHT22;8594;52.052;8.354;2023-07-09T13:11:01;35.90;80.70
16955;DHT22;8594;52.052;8.354;2023-07-09T13:13:28;36.20;82.90
16955;DHT22;8594;52.052;8.354;2023-07-09T13:15:56;36.30;79.20
16955;DHT22;8594;52.052;8.354;2023-07-09T13:18:26;36.20;81.20
16955;DHT22;8594;52.052;8.354;2023-07-09T13:20:56;36.10;81.70
16955;DHT22;8594;52.052;8.354;2023-07-09T13:23:26;36.40;78.80
16955;DHT22;8594;52.052;8.354;2023-07-09T13:25:55;36.30;78.90
16955;DHT22;8594;52.052;8.354;2023-07-09T13:28:26;36.30;80.00
16955;DHT22;8594;52.052;8.354;2023-07-09T13:30:57;36.20;79.70
16955;DHT22;8594;52.052;8.354;2023-07-09T13:33:26;36.30;78.90
16955;DHT22;8594;52.052;8.354;2023-07-09T13:35:54;36.30;80.50
16955;DHT22;8594;52.052;8.354;2023-07-09T13:38:22;36.20;80.80
16955;DHT22;8594;52.052;8.354;2023-07-09T13:40:53;36.10;82.00
16955;DHT22;8594;52.052;8.354;2023-07-09T13:43:28;36.00;80.30
16955;DHT22;8594;52.052;8.354;2023-07-09T13:45:56;36.10;79.20
16955;DHT22;8594;52.052;8.354;2023-07-09T13:48:25;36.30;81.20
16955;DHT22;8594;52.052;8.354;2023-07-09T13:50:55;36.30;83.40
16955;DHT22;8594;52.052;8.354;2023-07-09T13:53:24;36.40;80.80
16955;DHT22;8594;52.052;8.354;2023-07-09T13:55:54;36.40;78.90
16955;DHT22;8594;52.052;8.354;2023-07-09T13:58:24;36.50;79.40
16955;DHT22;8594;52.052;8.354;2023-07-09T14:00:58;36.50;81.80
16955;DHT22;8594;52.052;8.354;2023-07-09T14:03:31;36.30;78.90
16955;DHT22;8594;52.052;8.354;2023-07-09T14:06:00;36.40;77.60
16955;DHT22;8594;52.052;8.354;2023-07-09T14:08:27;36.50;78.20
16955;DHT22;8594;52.052;8.354;2023-07-09T14:10:54;36.60;82.80
16955;DHT22;8594;52.052;8.354;2023-07-09T14:13:23;36.30;80.20
16955;DHT22;8594;52.052;8.354;2023-07-09T14:15:51;36.40;79.40
16955;DHT22;8594;52.052;8.354;2023-07-09T14:18:21;36.40;79.50
16955;DHT22;8594;52.052;8.354;2023-07-09T14:20:49;36.20;80.00
16955;DHT22;8594;52.052;8.354;2023-07-09T14:23:18;36.10;78.70
16955;DHT22;8594;52.052;8.354;2023-07-09T14:25:46;36.20;78.90
16955;DHT22;8594;52.052;8.354;2023-07-09T14:28:15;36.20;78.90
16955;DHT22;8594;52.052;8.354;2023-07-09T14:30:44;36.10;78.10
16955;DHT22;8594;52.052;8.354;2023-07-09T14:33:14;36.00;82.20
16955;DHT22;8594;52.052;8.354;2023-07-09T14:35:44;35.90;79.30
16955;DHT22;8594;52.052;8.354;2023-07-09T14:38:16;35.90;82.40
16955;DHT22;8594;52.052;8.354;2023-07-09T14:40:45;36.00;81.60
16955;DHT22;8594;52.052;8.354;2023-07-09T14:43:13;35.90;81.30
16955;DHT22;8594;52.052;8.354;2023-07-09T14:45:40;35.80;80.00
16955;DHT22;8594;52.052;8.354;2023-07-09T14:48:13;35.70;79.80
16955;DHT22;8594;52.052;8.354;2023-07-09T14:50:43;35.90;78.70
16955;DHT22;8594;52.052;8.354;2023-07-09T14:53:15;36.10;77.80
16955;DHT22;8594;52.052;8.354;2023-07-09T14:55:46;36.10;77.10
16955;DHT22;8594;52.052;8.354;2023-07-09T14:58:15;36.10;78.50
16955;DHT22;8594;52.052;8.354;2023-07-09T15:00:45;35.90;80.80
16955;DHT22;8594;52.052;8.354;2023-07-09T15:03:18;35.60;79.70
16955;DHT22;8594;52.052;8.354;2023-07-09T15:05:48;35.60;80.90
16955;DHT22;8594;52.052;8.354;2023-07-09T15:08:17;35.60;81.30
16955;DHT22;8594;52.052;8.354;2023-07-09T15:10:48;35.50;81.70
16955;DHT22;8594;52.052;8.354;2023-07-09T15:13:17;35.50;81.70
16955;DHT22;8594;52.052;8.354;2023-07-09T15:15:45;35.50;82.50
16955;DHT22;8594;52.052;8.354;2023-07-09T15:18:14;35.50;81.90
16955;DHT22;8594;52.052;8.354;2023-07-09T15:20:49;35.70;79.20
16955;DHT22;8594;52.052;8.354;2023-07-09T15:23:18;35.60;80.40
16955;DHT22;8594;52.052;8.354;2023-07-09T15:25:48;35.60;79.90
16955;DHT22;8594;52.052;8.354;2023-07-09T15:28:15;35.60;79.80
16955;DHT22;8594;52.052;8.354;2023-07-09T15:30:42;35.70;80.60
16955;DHT22;8594;52.052;8.354;2023-07-09T15:33:14;35.50;82.90
16955;DHT22;8594;52.052;8.354;2023-07-09T15:35:44;35.10;83.60
16955;DHT22;8594;52.052;8.354;2023-07-09T15:38:28;35.20;81.80
16955;DHT22;8594;52.052;8.354;2023-07-09T15:40:57;35.40;81.70
16955;DHT22;8594;52.052;8.354;2023-07-09T15:43:24;35.30;82.20
16955;DHT22;8594;52.052;8.354;2023-07-09T15:45:55;35.10;82.60
16955;DHT22;8594;52.052;8.354;2023-07-09T15:48:26;35.00;82.90
16955;DHT22;8594;52.052;8.354;2023-07-09T15:50:56;35.10;82.60
16955;DHT22;8594;52.052;8.354;2023-07-09T15:53:25;35.00;83.60
16955;DHT22;8594;52.052;8.354;2023-07-09T15:55:57;34.90;84.10
16955;DHT22;8594;52.052;8.354;2023-07-09T15:58:28;34.80;85.00
16955;DHT22;8594;52.052;8.354;2023-07-09T16:00:57;34.80;85.20
16955;DHT22;8594;52.052;8.354;2023-07-09T16:03:23;34.80;85.10